createdAt,value
2023-10-01T00:00:44.417Z,100824.34
2023-10-01T00:05:49.936Z,100807.78
2023-10-01T00:10:52.854Z,100811.25
2023-10-01T00:15:56.302Z,100800.06
2023-10-01T00:21:00.529Z,100790.44
2023-10-01T00:26:03.410Z,100789.47
2023-10-01T00:31:06.601Z,100788.38
2023-10-01T00:36:10.784Z,100781.53
2023-10-01T00:41:13.683Z,100793.97
2023-10-01T00:46:16.585Z,100788.63
2023-10-01T00:51:21.496Z,100779.50
2023-10-01T00:56:26.531Z,100794.53
2023-10-01T01:01:29.587Z,100795.63
2023-10-01T01:06:38.014Z,100807.97
2023-10-01T01:11:42.093Z,100805.41
2023-10-01T01:16:46.508Z,100814.22
2023-10-01T01:21:51.756Z,100811.66
2023-10-01T01:27:01.527Z,100816.16
2023-10-01T01:32:14.760Z,100795.63
2023-10-01T01:37:31.691Z,100780.00
2023-10-01T01:42:35.858Z,100767.78
2023-10-01T01:47:39.393Z,100778.38
2023-10-01T01:52:43.745Z,100781.75
2023-10-01T01:58:03.373Z,100774.75
2023-10-01T02:03:13.673Z,100772.03
2023-10-01T02:08:25.726Z,100765.13
2023-10-01T02:13:31.016Z,100748.25
2023-10-01T02:18:33.906Z,100735.19
2023-10-01T02:23:37.542Z,100730.06
2023-10-01T02:28:41.743Z,100740.59
2023-10-01T02:33:56.913Z,100743.88
2023-10-01T02:38:59.986Z,100737.06
2023-10-01T02:44:04.396Z,100727.31
2023-10-01T02:49:14.198Z,100707.91
2023-10-01T02:54:19.848Z,100710.56
2023-10-01T02:59:24.218Z,100708.81
2023-10-01T03:04:28.709Z,100699.16
2023-10-01T03:09:35.720Z,100699.13
2023-10-01T03:14:44.485Z,100713.41
2023-10-01T03:19:53.433Z,100715.09
2023-10-01T03:24:59.449Z,100716.75
2023-10-01T03:30:19.803Z,100716.81
2023-10-01T03:35:22.867Z,100715.25
2023-10-01T03:40:28.943Z,100727.44
2023-10-01T03:45:56.039Z,100716.19
2023-10-01T03:50:58.953Z,100711.75
2023-10-01T03:56:02.061Z,100712.63
2023-10-01T04:01:26.875Z,100709.09
2023-10-01T04:06:31.291Z,100714.56
2023-10-01T04:11:52.843Z,100706.50
2023-10-01T04:16:57.655Z,100703.88
2023-10-01T04:22:00.976Z,100694.25
2023-10-01T04:27:19.537Z,100682.66
2023-10-01T04:32:28.332Z,100683.59
2023-10-01T04:37:42.068Z,100681.84
2023-10-01T04:42:44.840Z,100686.25
2023-10-01T04:47:49.993Z,100688.84
2023-10-01T04:52:54.627Z,100689.78
2023-10-01T04:57:58.154Z,100688.84
2023-10-01T05:03:04.301Z,100696.88
2023-10-01T05:08:08.146Z,100696.88
2023-10-01T05:13:10.941Z,100682.78
2023-10-01T05:18:17.044Z,100681.03
2023-10-01T05:23:30.956Z,100686.25
2023-10-01T05:28:35.789Z,100690.66
2023-10-01T05:33:40.261Z,100693.97
2023-10-01T05:38:44.474Z,100700.28
2023-10-01T05:43:51.586Z,100703.00
2023-10-01T05:48:57.062Z,100703.97
2023-10-01T05:54:00.678Z,100720.88
2023-10-01T05:59:05.035Z,100743.81
2023-10-01T06:04:14.001Z,100747.44
2023-10-01T06:09:17.107Z,100763.44
2023-10-01T06:14:37.305Z,100761.72
2023-10-01T06:19:42.552Z,100753.03
2023-10-01T06:24:47.533Z,100764.53
2023-10-01T06:29:53.216Z,100773.19
2023-10-01T06:34:58.912Z,100777.81
2023-10-01T06:40:02.063Z,100776.34
2023-10-01T06:45:08.143Z,100787.22
2023-10-01T06:50:15.980Z,100796.34
2023-10-01T06:55:29.717Z,100810.69
2023-10-01T07:00:35.614Z,100810.31
2023-10-01T07:05:40.814Z,100816.75
2023-10-01T07:10:43.681Z,100831.44
2023-10-01T07:15:48.034Z,100837.81
2023-10-01T07:20:52.836Z,100849.22
2023-10-01T07:26:01.597Z,100850.44
2023-10-01T07:31:07.668Z,100874.41
2023-10-01T07:36:12.712Z,100873.13
2023-10-01T07:41:17.353Z,100883.94
2023-10-01T07:46:20.841Z,100876.47
2023-10-01T07:51:27.461Z,100888.22
2023-10-01T07:56:30.537Z,100902.81
2023-10-01T08:01:43.925Z,100908.63
2023-10-01T08:06:50.936Z,100925.00
2023-10-01T08:12:07.451Z,100941.97
2023-10-01T08:17:10.589Z,100950.50
2023-10-01T08:22:16.889Z,100970.03
2023-10-01T08:27:33.110Z,100993.56
2023-10-01T08:32:39.626Z,101007.63
2023-10-01T08:37:50.560Z,101004.81
2023-10-01T08:42:54.168Z,101038.72
2023-10-01T08:48:01.138Z,101057.84
2023-10-01T08:53:12.190Z,101054.25
2023-10-01T08:58:16.596Z,101064.75
2023-10-01T09:03:29.988Z,101088.00
2023-10-01T09:08:43.911Z,101113.75
2023-10-01T09:13:48.294Z,101124.63
2023-10-01T09:19:04.664Z,101126.19
2023-10-01T09:24:24.966Z,101138.28
2023-10-01T09:29:28.592Z,101146.44
2023-10-01T09:34:36.075Z,101155.97
2023-10-01T09:39:43.477Z,101153.81
2023-10-01T09:44:48.097Z,101162.03
2023-10-01T09:49:53.587Z,101167.94
2023-10-01T09:55:04.803Z,101158.41
2023-10-01T10:00:19.778Z,101162.91
2023-10-01T10:05:30.035Z,101161.69
2023-10-01T10:10:35.445Z,101179.63
2023-10-01T10:15:57.946Z,101195.38
2023-10-01T10:21:01.671Z,101186.16
2023-10-01T10:26:16.018Z,101175.56
2023-10-01T10:31:32.488Z,101166.34
2023-10-01T10:36:36.960Z,101193.19
2023-10-01T10:42:29.269Z,101197.72
2023-10-01T10:47:32.554Z,101205.19
2023-10-01T10:52:35.407Z,101221.81
2023-10-01T10:57:49.359Z,101210.13
2023-10-01T11:02:58.037Z,101224.50
2023-10-01T11:08:04.001Z,101220.88
2023-10-01T11:13:14.551Z,101243.19
2023-10-01T11:18:17.558Z,101272.81
2023-10-01T11:23:21.001Z,101283.56
2023-10-01T11:28:31.181Z,101282.88
2023-10-01T11:33:34.093Z,101285.59
2023-10-01T11:38:38.030Z,101304.69
2023-10-01T11:43:43.912Z,101300.09
2023-10-01T11:48:59.425Z,101308.97
2023-10-01T11:54:14.147Z,101306.75
2023-10-01T11:59:21.872Z,101311.00
2023-10-01T12:04:39.821Z,101308.56
2023-10-01T12:09:44.196Z,101302.63
2023-10-01T12:14:55.134Z,101319.97
2023-10-01T12:20:00.413Z,101320.75
2023-10-01T12:25:04.142Z,101322.66
2023-10-01T12:30:12.261Z,101329.78
2023-10-01T12:35:28.830Z,101330.56
2023-10-01T12:40:35.947Z,101326.22
2023-10-01T12:45:45.153Z,101318.09
2023-10-01T12:51:01.104Z,101330.03
2023-10-01T12:56:05.172Z,101321.19
2023-10-01T13:01:25.408Z,101319.34
2023-10-01T13:06:29.222Z,101314.06
2023-10-01T13:11:55.024Z,101325.72
2023-10-01T13:17:02.163Z,101314.03
2023-10-01T13:22:06.362Z,101322.94
2023-10-01T13:27:12.349Z,101319.38
2023-10-01T13:32:17.679Z,101316.66
2023-10-01T13:37:43.789Z,101316.69
2023-10-01T13:43:04.307Z,101313.22
2023-10-01T13:48:26.512Z,101315.19
2023-10-01T13:53:46.579Z,101306.03
2023-10-01T13:59:07.049Z,101304.25
2023-10-01T14:04:29.694Z,101293.38
2023-10-01T14:09:52.440Z,101285.22
2023-10-01T14:14:55.295Z,101272.81
2023-10-01T14:19:59.742Z,101259.31
2023-10-01T14:25:21.804Z,101255.72
2023-10-01T14:30:28.677Z,101257.59
2023-10-01T14:35:39.564Z,101246.75
2023-10-01T14:40:45.308Z,101253.00
2023-10-01T14:45:50.090Z,101248.53
2023-10-01T14:50:58.112Z,101250.34
2023-10-01T14:56:05.962Z,101248.56
2023-10-01T15:01:10.812Z,101250.25
2023-10-01T15:06:19.373Z,101254.69
2023-10-01T15:11:24.646Z,101245.75
2023-10-01T15:16:45.506Z,101247.50
2023-10-01T15:21:56.509Z,101245.59
2023-10-01T15:27:00.238Z,101249.97
2023-10-01T15:32:16.130Z,101247.25
2023-10-01T15:37:20.468Z,101249.94
2023-10-01T15:42:24.529Z,101238.16
2023-10-01T15:47:33.606Z,101244.38
2023-10-01T15:52:47.120Z,101239.91
2023-10-01T15:57:56.629Z,101235.28
2023-10-01T16:03:11.921Z,101229.84
2023-10-01T16:08:21.245Z,101227.13
2023-10-01T16:13:28.943Z,101211.78
2023-10-01T16:18:33.925Z,101211.75
2023-10-01T16:23:38.581Z,101210.72
2023-10-01T16:28:42.923Z,101215.94
2023-10-01T16:33:47.335Z,101198.94
2023-10-01T16:38:54.432Z,101201.44
2023-10-01T16:43:58.278Z,101203.22
2023-10-01T16:49:02.338Z,101209.25
2023-10-01T16:54:14.729Z,101194.88
2023-10-01T16:59:22.746Z,101191.28
2023-10-01T17:04:28.462Z,101190.16
2023-10-01T17:09:35.488Z,101188.16
2023-10-01T17:14:40.365Z,101183.69
2023-10-01T17:19:44.993Z,101181.72
2023-10-01T17:24:52.695Z,101179.78
2023-10-01T17:29:57.981Z,101172.47
2023-10-01T17:35:02.349Z,101160.69
2023-10-01T17:40:18.724Z,101153.47
2023-10-01T17:45:21.827Z,101144.38
2023-10-01T17:50:24.756Z,101136.19
2023-10-01T17:55:29.241Z,101120.84
2023-10-01T18:00:40.783Z,101115.31
2023-10-01T18:05:57.564Z,101105.47
2023-10-01T18:11:10.932Z,101096.44
2023-10-01T18:16:24.589Z,101091.97
2023-10-01T18:21:27.406Z,101079.59
2023-10-01T18:26:31.846Z,101092.84
2023-10-01T18:31:34.784Z,101076.75
2023-10-01T18:36:41.107Z,101092.75
2023-10-01T18:41:45.836Z,101080.03
2023-10-01T18:46:48.883Z,101069.28
2023-10-01T18:51:52.840Z,101061.00
2023-10-01T18:56:59.356Z,101049.16
2023-10-01T19:02:02.657Z,101043.75
2023-10-01T19:07:05.810Z,101024.03
2023-10-01T19:12:10.067Z,101009.59
2023-10-01T19:17:12.938Z,100994.34
2023-10-01T19:22:15.896Z,100977.50
2023-10-01T19:27:20.205Z,100969.38
2023-10-01T19:32:23.519Z,100962.84
2023-10-01T19:37:28.578Z,100943.09
2023-10-01T19:42:34.741Z,100927.94
2023-10-01T19:47:41.636Z,100909.13
2023-10-01T19:52:45.529Z,100896.50
2023-10-01T19:57:53.611Z,100877.63
2023-10-01T20:03:11.957Z,100853.50
2023-10-01T20:08:15.775Z,100826.78
2023-10-01T20:13:21.050Z,100817.88
2023-10-01T20:18:24.496Z,100806.28
2023-10-01T20:23:27.815Z,100794.72
2023-10-01T20:28:33.344Z,100776.84
2023-10-01T20:33:36.381Z,100768.78
2023-10-01T20:38:41.956Z,100759.03
2023-10-01T20:43:49.836Z,100760.59
2023-10-01T20:49:00.286Z,100738.34
2023-10-01T20:54:05.350Z,100737.25
2023-10-01T20:59:15.028Z,100725.63
2023-10-01T21:04:25.639Z,100723.84
2023-10-01T21:09:31.171Z,100719.25
2023-10-01T21:14:38.140Z,100713.91
2023-10-01T21:19:43.612Z,100704.91
2023-10-01T21:24:47.196Z,100703.94
2023-10-01T21:29:54.147Z,100688.78
2023-10-01T21:34:58.846Z,100678.13
2023-10-01T21:40:01.719Z,100691.28
2023-10-01T21:45:31.678Z,100686.47
2023-10-01T21:50:37.699Z,100677.63
2023-10-01T21:55:40.694Z,100683.78
2023-10-01T22:01:01.383Z,100688.19
2023-10-01T22:06:07.079Z,100685.44
2023-10-01T22:11:12.392Z,100679.91
2023-10-01T22:16:18.188Z,100677.97
2023-10-01T22:21:22.878Z,100670.78
2023-10-01T22:26:32.533Z,100655.69
2023-10-01T22:31:39.652Z,100656.59
2023-10-01T22:36:48.810Z,100637.94
2023-10-01T22:41:51.713Z,100648.56
2023-10-01T22:47:06.414Z,100628.03
2023-10-01T22:52:09.507Z,100623.66
2023-10-01T22:57:13.811Z,100630.63
2023-10-01T23:02:23.090Z,100612.84
2023-10-01T23:07:32.725Z,100619.09
2023-10-01T23:12:37.162Z,100604.81
2023-10-01T23:18:00.425Z,100593.13
2023-10-01T23:23:03.742Z,100580.84
2023-10-01T23:28:15.222Z,100589.53
2023-10-01T23:33:21.230Z,100581.44
2023-10-01T23:38:30.565Z,100588.16
2023-10-01T23:43:47.284Z,100571.34
2023-10-01T23:48:58.183Z,100576.72
2023-10-01T23:54:03.958Z,100562.50
2023-10-01T23:59:20.956Z,100554.50
